Time;durP1;ratioP1;P1;durP2;ratioP2;P2;SDS_P1;SDS_P2;PMS_P1;PMS_P2;Temp;Humidity;BMP_temperature;BMP_pressure;BME280_temperature;BME280_humidity;BME280_pressure;Samples;Min_cycle;Max_cycle;Signal;HPM_P1;HPM_P2
2020/12/29 00:00:52;;;;;;;29.40;19.90;;;3.70;97.50;;;;;;5098411;28;20052;-61
2020/12/29 00:03:18;;;;;;;28.23;20.13;;;3.70;97.80;;;;;;5102546;28;20063;-61
2020/12/29 00:05:45;;;;;;;27.30;19.40;;;3.70;97.70;;;;;;5098495;27;20130;-61
2020/12/29 00:08:12;;;;;;;30.00;20.33;;;3.70;97.60;;;;;;5106026;27;20460;-61
2020/12/29 00:10:38;;;;;;;30.40;20.17;;;3.70;97.70;;;;;;5110264;27;20436;-61
2020/12/29 00:13:04;;;;;;;31.10;21.43;;;3.70;97.70;;;;;;5099351;27;20127;-61
2020/12/29 00:15:30;;;;;;;32.27;21.07;;;3.70;97.70;;;;;;5108068;27;20114;-61
2020/12/29 00:17:56;;;;;;;29.60;19.97;;;3.70;97.70;;;;;;5102401;27;20036;-61
2020/12/29 00:20:21;;;;;;;29.33;20.57;;;3.70;97.60;;;;;;5103822;27;20131;-61
2020/12/29 00:22:47;;;;;;;27.33;21.17;;;3.60;97.20;;;;;;5102786;27;20081;-61
2020/12/29 00:25:16;;;;;;;29.97;21.57;;;3.70;97.80;;;;;;5106623;27;20493;-61
2020/12/29 00:27:42;;;;;;;31.20;20.80;;;3.70;97.70;;;;;;5095646;28;20036;-61
2020/12/29 00:30:08;;;;;;;30.37;20.33;;;3.70;97.70;;;;;;5104761;27;20517;-60
2020/12/29 00:32:34;;;;;;;30.87;20.67;;;3.70;97.50;;;;;;5106111;27;20040;-61
2020/12/29 00:34:59;;;;;;;29.10;20.70;;;3.80;97.60;;;;;;5105448;27;20035;-61
2020/12/29 00:37:25;;;;;;;31.07;22.00;;;3.70;97.50;;;;;;5102473;27;21080;-62
2020/12/29 00:39:51;;;;;;;27.70;19.07;;;3.80;97.50;;;;;;5098405;27;20059;-61
2020/12/29 00:42:16;;;;;;;32.73;22.03;;;3.90;97.20;;;;;;5106449;27;20028;-61
2020/12/29 00:44:42;;;;;;;29.10;20.77;;;3.90;97.50;;;;;;5096533;28;20036;-61
2020/12/29 00:47:08;;;;;;;27.67;20.80;;;4.10;97.30;;;;;;5105464;27;20036;-61
2020/12/29 00:49:37;;;;;;;30.53;20.17;;;4.10;97.50;;;;;;5099669;28;20116;-61
2020/12/29 00:52:03;;;;;;;30.57;21.07;;;4.10;97.10;;;;;;5107064;27;20036;-61
2020/12/29 00:54:28;;;;;;;28.67;20.53;;;4.20;96.60;;;;;;5096556;27;20046;-61
2020/12/29 00:56:54;;;;;;;29.77;20.53;;;4.20;97.00;;;;;;5101533;27;20088;-61
2020/12/29 00:59:19;;;;;;;30.83;21.13;;;4.30;96.80;;;;;;5099815;27;20067;-61
2020/12/29 01:01:52;;;;;;;26.87;19.20;;;4.30;95.80;;;;;;5109591;27;20728;-61
2020/12/29 01:04:18;;;;;;;30.37;20.53;;;4.20;96.80;;;;;;5099910;27;20044;-61
2020/12/29 01:06:43;;;;;;;29.77;20.13;;;4.30;97.10;;;;;;5101121;27;20051;-61
2020/12/29 01:09:09;;;;;;;28.33;20.33;;;4.40;96.80;;;;;;5100728;28;20514;-61
2020/12/29 01:11:35;;;;;;;32.47;21.50;;;4.30;96.50;;;;;;5106287;28;20457;-62
2020/12/29 01:14:09;;;;;;;32.40;21.13;;;4.40;96.70;;;;;;5101945;28;20049;-62
2020/12/29 01:16:35;;;;;;;31.52;21.88;;;4.30;95.90;;;;;;5105233;27;20040;-61
2020/12/29 01:22:23;;;;;;;31.37;21.97;;;4.20;95.60;;;;;;5048533;28;20082;-62
2020/12/29 01:24:48;;;;;;;30.33;21.27;;;4.20;96.00;;;;;;5092015;28;20066;-60
2020/12/29 01:27:14;;;;;;;30.93;21.83;;;4.20;95.90;;;;;;5098549;27;20108;-60
2020/12/29 01:29:39;;;;;;;29.70;21.40;;;4.20;96.90;;;;;;5090785;28;20312;-61
2020/12/29 01:32:05;;;;;;;31.17;21.60;;;4.30;96.70;;;;;;5107968;27;20528;-60
2020/12/29 01:34:31;;;;;;;31.50;21.90;;;4.30;96.20;;;;;;5107632;27;20035;-61
2020/12/29 01:36:56;;;;;;;28.03;20.57;;;4.20;96.40;;;;;;5085382;28;20122;-60
2020/12/29 01:39:22;;;;;;;30.77;22.07;;;4.20;96.30;;;;;;5090787;28;20046;-61
2020/12/29 01:41:47;;;;;;;31.60;22.20;;;4.10;96.00;;;;;;5096928;27;20036;-61
2020/12/29 01:44:20;;;;;;;29.30;21.87;;;4.10;96.10;;;;;;5103588;27;20092;-60
2020/12/29 01:46:56;;;;;;;32.07;21.57;;;4.10;95.10;;;;;;5095285;27;20510;-61
2020/12/29 01:49:22;;;;;;;30.17;21.07;;;4.10;96.00;;;;;;5101355;27;20032;-60
2020/12/29 01:51:47;;;;;;;30.10;21.90;;;4.10;96.30;;;;;;5094406;27;20042;-60
2020/12/29 01:54:13;;;;;;;28.40;20.17;;;4.10;96.40;;;;;;5098080;27;20081;-61
2020/12/29 01:56:40;;;;;;;29.43;21.67;;;4.10;95.70;;;;;;5095428;27;20046;-60
2020/12/29 01:59:10;;;;;;;28.53;21.67;;;4.10;96.10;;;;;;5101488;27;20492;-60
2020/12/29 02:01:45;;;;;;;28.30;20.23;;;4.10;95.80;;;;;;5102239;27;20042;-60
2020/12/29 02:04:11;;;;;;;;;;;4.00;94.90;;;;;;5097885;27;20535;-59
2020/12/29 02:06:40;;;;;;;28.50;21.43;;;4.00;94.50;;;;;;5099794;27;20002;-60
2020/12/29 02:09:10;;;;;;;26.13;19.50;;;4.00;95.10;;;;;;5105368;27;20036;-61
2020/12/29 02:11:36;;;;;;;30.67;21.87;;;3.90;96.10;;;;;;5103007;27;20485;-61
2020/12/29 02:14:03;;;;;;;28.60;21.40;;;3.90;96.10;;;;;;5088838;28;20047;-61
2020/12/29 02:16:28;;;;;;;28.73;21.90;;;3.80;95.20;;;;;;5101469;27;20046;-60
2020/12/29 02:18:54;;;;;;;29.13;20.67;;;3.90;96.50;;;;;;5095967;27;20044;-60
2020/12/29 02:21:20;;;;;;;28.83;20.97;;;3.80;96.00;;;;;;5102051;27;20383;-60
2020/12/29 02:23:45;;;;;;;32.03;21.63;;;3.70;96.20;;;;;;5094098;28;20051;-60
2020/12/29 02:26:11;;;;;;;27.17;20.50;;;3.60;95.30;;;;;;5106872;27;20054;-60
2020/12/29 02:28:37;;;;;;;29.90;21.40;;;3.60;96.10;;;;;;5098784;28;20438;-61
2020/12/29 02:31:03;;;;;;;29.30;20.33;;;3.70;96.40;;;;;;5085395;28;20056;-62
2020/12/29 02:33:28;;;;;;;27.13;20.00;;;3.70;95.50;;;;;;5094198;28;20047;-62
2020/12/29 02:35:54;;;;;;;29.50;20.63;;;3.50;95.00;;;;;;5101278;27;20063;-61
2020/12/29 02:38:24;;;;;;;26.33;19.60;;;3.60;95.90;;;;;;5094062;27;20027;-61
2020/12/29 02:40:51;;;;;;;26.80;19.80;;;3.60;95.40;;;;;;5094693;27;20040;-61
2020/12/29 02:43:17;;;;;;;27.20;20.10;;;3.60;96.10;;;;;;5085503;28;20497;-61
2020/12/29 02:45:43;;;;;;;32.13;22.33;;;3.60;96.10;;;;;;5095890;28;20036;-61
2020/12/29 02:48:09;;;;;;;29.97;20.93;;;3.50;95.50;;;;;;5094275;28;20055;-62
2020/12/29 02:50:35;;;;;;;31.00;21.37;;;3.30;95.60;;;;;;5092975;28;20044;-61
2020/12/29 02:53:02;;;;;;;31.03;21.87;;;3.30;95.50;;;;;;5101516;28;20091;-61
2020/12/29 02:55:27;;;;;;;28.53;20.57;;;3.40;95.90;;;;;;5099318;28;20163;-61
2020/12/29 02:57:54;;;;;;;28.77;21.47;;;3.30;95.40;;;;;;5080255;28;20036;-61
2020/12/29 03:00:21;;;;;;;29.17;21.87;;;3.40;95.60;;;;;;5104250;27;20043;-61
2020/12/29 03:02:47;;;;;;;30.90;21.70;;;3.30;95.80;;;;;;5088843;27;20054;-61
2020/12/29 03:05:13;;;;;;;32.13;22.93;;;3.20;95.20;;;;;;5095465;27;20028;-61
2020/12/29 03:07:38;;;;;;;33.60;23.73;;;3.20;95.90;;;;;;5092862;27;20050;-61
2020/12/29 03:10:09;;;;;;;32.47;22.23;;;3.20;96.00;;;;;;5091791;28;20382;-61
2020/12/29 03:12:40;;;;;;;34.30;23.73;;;3.20;95.30;;;;;;5083658;28;20036;-61
2020/12/29 03:15:07;;;;;;;29.67;22.20;;;3.20;95.90;;;;;;5097394;28;20040;-60
2020/12/29 03:17:34;;;;;;;29.50;22.07;;;3.20;95.80;;;;;;5105136;27;20038;-61
2020/12/29 03:20:02;;;;;;;34.13;23.23;;;3.30;95.90;;;;;;5095257;28;20036;-62
2020/12/29 03:22:27;;;;;;;31.27;21.50;;;3.30;96.10;;;;;;5105620;27;20044;-61
2020/12/29 03:24:53;;;;;;;30.73;21.93;;;3.30;96.00;;;;;;5093573;28;20390;-61
2020/12/29 03:27:19;;;;;;;32.57;22.43;;;3.20;96.30;;;;;;5099308;28;20124;-61
2020/12/29 03:29:44;;;;;;;34.00;23.70;;;3.10;94.90;;;;;;5096252;28;20505;-60
2020/12/29 03:32:10;;;;;;;32.60;22.40;;;3.10;95.80;;;;;;5103054;28;20036;-61
2020/12/29 03:34:38;;;;;;;28.17;20.53;;;3.10;96.10;;;;;;5095726;27;20040;-61
2020/12/29 03:37:09;;;;;;;29.40;21.13;;;3.30;96.10;;;;;;5080122;28;20097;-61
2020/12/29 03:39:38;;;;;;;29.80;21.23;;;3.20;96.00;;;;;;5095809;27;20077;-61
2020/12/29 03:42:05;;;;;;;28.50;21.27;;;3.30;96.10;;;;;;5101750;28;20024;-61
2020/12/29 03:44:33;;;;;;;32.67;21.70;;;3.30;95.40;;;;;;5088070;28;20150;-61
2020/12/29 03:46:59;;;;;;;31.13;22.07;;;3.30;95.10;;;;;;5101620;28;20047;-61
2020/12/29 03:49:25;;;;;;;29.30;21.23;;;3.20;96.30;;;;;;5095167;28;20493;-61
2020/12/29 03:51:50;;;;;;;33.20;21.30;;;3.20;95.60;;;;;;5095998;28;20036;-61
2020/12/29 03:54:16;;;;;;;28.87;20.60;;;3.20;96.30;;;;;;5091300;28;20033;-61
2020/12/29 03:56:42;;;;;;;28.20;21.13;;;3.20;96.10;;;;;;5081959;28;20400;-61
2020/12/29 03:59:07;;;;;;;31.20;21.33;;;3.20;95.70;;;;;;5103863;28;20509;-60
2020/12/29 04:01:33;;;;;;;26.50;20.60;;;3.20;96.00;;;;;;5097710;28;20035;-60
2020/12/29 04:03:59;;;;;;;31.93;20.80;;;3.20;96.10;;;;;;5083673;28;20046;-60
2020/12/29 04:06:24;;;;;;;29.20;19.90;;;3.20;95.90;;;;;;5098010;28;20065;-60
2020/12/29 04:08:51;;;;;;;27.07;20.03;;;3.30;95.90;;;;;;5100293;28;20051;-60
2020/12/29 04:11:16;;;;;;;25.50;18.97;;;3.30;96.20;;;;;;5096629;28;20070;-60
2020/12/29 04:13:42;;;;;;;29.57;19.87;;;3.20;96.20;;;;;;5099018;28;20070;-59
2020/12/29 04:16:10;;;;;;;25.50;19.73;;;3.30;96.20;;;;;;5091807;28;20040;-59
2020/12/29 04:18:36;;;;;;;27.87;19.80;;;3.30;95.90;;;;;;5103303;28;20100;-60
2020/12/29 04:21:02;;;;;;;26.37;19.00;;;3.30;95.80;;;;;;5094121;28;20039;-60
2020/12/29 04:23:27;;;;;;;26.67;19.17;;;3.20;96.10;;;;;;5082085;28;20036;-60
2020/12/29 04:25:53;;;;;;;27.63;20.17;;;3.20;96.10;;;;;;5096336;28;20043;-60
2020/12/29 04:28:19;;;;;;;29.17;20.17;;;3.20;95.80;;;;;;5083815;28;20054;-60
2020/12/29 04:30:44;;;;;;;27.07;18.53;;;3.20;96.10;;;;;;5101845;28;20130;-61
2020/12/29 04:33:10;;;;;;;26.57;18.93;;;3.20;95.20;;;;;;5096667;28;20039;-60
2020/12/29 04:35:35;;;;;;;27.63;19.90;;;3.20;95.50;;;;;;5101970;28;20101;-61
2020/12/29 04:38:01;;;;;;;24.83;18.53;;;3.20;95.90;;;;;;5096161;28;20473;-60
2020/12/29 04:40:32;;;;;;;27.97;20.10;;;3.20;96.40;;;;;;5104663;28;20046;-61
2020/12/29 04:42:58;;;;;;;23.97;19.27;;;3.20;94.90;;;;;;5097611;28;20043;-60
2020/12/29 04:45:25;;;;;;;28.03;19.57;;;3.20;95.90;;;;;;5088999;28;20035;-61
2020/12/29 04:47:52;;;;;;;26.93;17.90;;;3.10;95.70;;;;;;5096601;28;20457;-60
2020/12/29 04:50:18;;;;;;;27.27;19.00;;;3.20;95.80;;;;;;5100903;28;20045;-61
2020/12/29 04:52:46;;;;;;;26.30;19.13;;;3.30;96.20;;;;;;5092732;28;21588;-60
2020/12/29 04:55:12;;;;;;;28.03;18.30;;;3.40;95.90;;;;;;5098837;27;20050;-60
2020/12/29 04:57:44;;;;;;;26.87;17.90;;;3.30;95.80;;;;;;5094921;28;20067;-61
2020/12/29 05:00:10;;;;;;;25.00;18.30;;;3.40;95.70;;;;;;5103078;27;20545;-60
2020/12/29 05:02:35;;;;;;;25.17;18.33;;;3.40;96.10;;;;;;5103641;27;20035;-61
2020/12/29 05:05:01;;;;;;;24.47;18.33;;;3.40;96.30;;;;;;5101723;27;20040;-60
2020/12/29 05:07:49;;;;;;;24.93;18.27;;;3.40;96.10;;;;;;5098189;27;20055;-60
2020/12/29 05:10:14;;;;;;;27.57;18.83;;;3.50;95.40;;;;;;5040388;27;20039;-60
2020/12/29 05:16:02;;;;;;;22.67;17.73;;;3.70;95.90;;;;;;5072463;27;20042;-61
2020/12/29 05:18:28;;;;;;;25.37;17.87;;;3.80;96.20;;;;;;5087094;28;20040;-61
2020/12/29 05:20:56;;;;;;;25.03;17.73;;;3.80;95.00;;;;;;5102348;27;20032;-61
2020/12/29 05:23:21;;;;;;;25.73;17.57;;;3.90;96.00;;;;;;5104257;28;20042;-61
2020/12/29 05:25:48;;;;;;;24.13;17.57;;;4.00;96.00;;;;;;5096616;27;20122;-61
2020/12/29 05:28:14;;;;;;;22.23;17.10;;;4.00;96.20;;;;;;5099902;28;20036;-61
2020/12/29 05:30:40;;;;;;;25.10;18.23;;;4.10;95.80;;;;;;5091855;27;20564;-61
2020/12/29 05:33:13;;;;;;;23.47;18.37;;;4.10;96.20;;;;;;5088311;28;20038;-61
2020/12/29 05:35:42;;;;;;;22.57;17.27;;;4.20;96.20;;;;;;5093048;28;20044;-61
2020/12/29 05:38:08;;;;;;;24.43;17.17;;;4.10;96.00;;;;;;5091136;28;20039;-60
2020/12/29 05:40:34;;;;;;;22.93;15.10;;;4.10;96.10;;;;;;5101698;27;20050;-61
2020/12/29 05:43:01;;;;;;;20.73;15.27;;;4.20;96.40;;;;;;5103021;27;20062;-61
2020/12/29 05:45:28;;;;;;;21.13;15.60;;;4.20;96.00;;;;;;5096809;27;20086;-60
2020/12/29 05:47:55;;;;;;;22.93;15.63;;;4.30;96.30;;;;;;5100572;28;20072;-61
2020/12/29 05:50:22;;;;;;;19.83;15.70;;;4.30;96.40;;;;;;5097430;27;20541;-60
2020/12/29 05:52:53;;;;;;;22.50;16.03;;;4.40;95.80;;;;;;5095262;27;20028;-61
2020/12/29 05:55:21;;;;;;;20.83;14.97;;;4.50;95.90;;;;;;5081190;27;20047;-61
2020/12/29 05:58:05;;;;;;;18.17;14.47;;;4.50;96.10;;;;;;5101500;28;20070;-61
2020/12/29 06:00:32;;;;;;;18.67;14.60;;;4.50;95.30;;;;;;5099841;28;20504;-60
2020/12/29 06:02:59;;;;;;;21.33;16.13;;;4.50;96.00;;;;;;5097409;27;20328;-59
2020/12/29 06:05:26;;;;;;;20.07;15.57;;;4.50;96.40;;;;;;5101119;27;20485;-60
2020/12/29 06:07:57;;;;;;;22.37;15.87;;;4.60;95.90;;;;;;5104076;27;20516;-61
2020/12/29 06:10:45;;;;;;;21.47;15.73;;;4.50;95.50;;;;;;5098006;27;20396;-61
2020/12/29 06:13:20;;;;;;;24.03;17.03;;;4.60;95.40;;;;;;5096622;28;20055;-59
2020/12/29 06:15:55;;;;;;;;;;;4.60;96.30;;;;;;5098270;27;20031;-61
2020/12/29 06:18:33;;;;;;;25.93;18.43;;;4.60;95.10;;;;;;5103225;27;19998;-60
2020/12/29 06:21:06;;;;;;;25.30;19.50;;;4.60;95.60;;;;;;5092652;27;20076;-60
2020/12/29 06:23:43;;;;;;;26.87;19.17;;;4.60;96.10;;;;;;5096981;27;20044;-60
2020/12/29 06:26:09;;;;;;;27.33;20.57;;;4.60;95.00;;;;;;5091210;27;20032;-60
2020/12/29 06:28:45;;;;;;;29.43;20.83;;;4.40;94.90;;;;;;5100995;27;20430;-61
2020/12/29 06:31:20;;;;;;;30.70;22.27;;;4.50;95.70;;;;;;5096587;28;20048;-60
2020/12/29 06:33:46;;;;;;;24.83;18.50;;;4.50;95.80;;;;;;5103121;27;20040;-61
2020/12/29 06:36:16;;;;;;;25.73;19.20;;;4.50;96.10;;;;;;5108787;27;20951;-60
2020/12/29 06:38:46;;;;;;;28.00;20.50;;;4.50;96.10;;;;;;5097512;28;20123;-60
2020/12/29 06:41:14;;;;;;;26.47;20.20;;;4.50;96.10;;;;;;5080786;28;20074;-61
2020/12/29 06:43:40;;;;;;;29.80;20.13;;;4.50;96.10;;;;;;5098324;27;20064;-60
2020/12/29 06:46:15;;;;;;;29.10;21.77;;;4.50;96.10;;;;;;5107959;27;20050;-60
2020/12/29 06:48:42;;;;;;;27.90;21.20;;;4.50;95.20;;;;;;5096613;27;20042;-60
2020/12/29 06:51:09;;;;;;;29.23;20.90;;;4.50;95.90;;;;;;5099879;28;20032;-60
2020/12/29 06:53:35;;;;;;;28.63;22.60;;;4.50;94.90;;;;;;5082243;28;20441;-61
2020/12/29 06:56:01;;;;;;;30.23;21.67;;;4.40;96.20;;;;;;5084892;28;20039;-61
2020/12/29 06:58:34;;;;;;;31.47;21.93;;;4.40;96.10;;;;;;5098011;28;20116;-61
2020/12/29 07:01:27;;;;;;;30.60;21.50;;;4.50;95.90;;;;;;5101904;27;20043;-60
2020/12/29 07:04:06;;;;;;;29.60;21.37;;;4.40;95.30;;;;;;5040765;28;20059;-60
2020/12/29 07:06:34;;;;;;;30.13;21.20;;;4.50;95.80;;;;;;5098281;28;20097;-60
2020/12/29 07:09:09;;;;;;;29.93;21.23;;;4.50;96.20;;;;;;5093643;28;20484;-61
2020/12/29 07:11:35;;;;;;;28.00;18.35;;;4.60;96.00;;;;;;5101649;27;20043;-61
2020/12/29 07:14:05;;;;;;;24.60;16.97;;;4.40;96.20;;;;;;5095066;27;20762;-61
2020/12/29 07:16:31;;;;;;;22.57;17.40;;;4.50;96.40;;;;;;5099318;28;20039;-61
2020/12/29 07:19:38;;;;;;;23.90;16.43;;;4.50;96.00;;;;;;5093568;28;20039;-61
2020/12/29 07:22:19;;;;;;;19.67;13.60;;;4.50;95.10;;;;;;5079713;27;20524;-61
2020/12/29 07:24:49;;;;;;;24.23;14.80;;;4.40;95.60;;;;;;5068926;28;20110;-61
2020/12/29 07:27:15;;;;;;;19.63;14.40;;;4.40;95.90;;;;;;5098226;28;20135;-60
2020/12/29 07:29:58;;;;;;;19.53;14.87;;;4.40;95.70;;;;;;5100854;27;20062;-60
2020/12/29 07:32:24;;;;;;;17.67;13.77;;;4.50;95.10;;;;;;5081752;28;20036;-60
2020/12/29 07:34:58;;;;;;;18.50;14.93;;;4.30;94.90;;;;;;5098252;27;20031;-60
2020/12/29 07:37:24;;;;;;;19.77;14.53;;;4.20;95.50;;;;;;5094381;28;20048;-60
2020/12/29 07:39:50;;;;;;;19.20;14.33;;;4.30;95.90;;;;;;5091747;28;20031;-60
2020/12/29 07:42:16;;;;;;;20.07;14.87;;;4.40;95.60;;;;;;5081113;28;20521;-60
2020/12/29 07:44:42;;;;;;;18.17;14.00;;;4.40;95.70;;;;;;5096798;27;20191;-60
2020/12/29 07:47:08;;;;;;;21.37;14.90;;;4.50;94.80;;;;;;5093510;28;20039;-60
2020/12/29 07:49:34;;;;;;;21.47;14.30;;;4.40;95.50;;;;;;5094893;28;20040;-60
2020/12/29 07:52:00;;;;;;;25.43;17.00;;;4.30;95.40;;;;;;5095866;28;20042;-60
2020/12/29 07:54:26;;;;;;;24.57;17.87;;;4.20;95.40;;;;;;5095404;28;20078;-60
2020/12/29 07:56:52;;;;;;;23.77;17.03;;;3.90;95.30;;;;;;5097201;28;20508;-60
2020/12/29 07:59:19;;;;;;;26.33;17.93;;;3.80;95.20;;;;;;5094132;28;20038;-60
2020/12/29 08:01:54;;;;;;;28.00;20.23;;;3.70;95.50;;;;;;5096298;28;20052;-59
2020/12/29 08:04:29;;;;;;;;;;;3.80;94.90;;;;;;5099545;28;20056;-60
2020/12/29 08:06:56;;;;;;;27.50;20.42;;;3.70;95.30;;;;;;5096259;28;19954;-60
2020/12/29 08:09:22;;;;;;;31.40;21.83;;;3.60;95.70;;;;;;5093477;28;20114;-60
2020/12/29 08:11:48;;;;;;;32.10;22.07;;;3.50;96.00;;;;;;5081697;28;20222;-60
2020/12/29 08:14:14;;;;;;;31.43;22.70;;;3.50;95.50;;;;;;5102336;28;20051;-60
2020/12/29 08:16:39;;;;;;;32.33;23.83;;;3.60;95.10;;;;;;5094998;28;20101;-59
2020/12/29 08:19:11;;;;;;;31.00;23.90;;;3.50;95.00;;;;;;5080223;28;20032;-60
2020/12/29 08:21:38;;;;;;;32.53;23.33;;;3.40;96.10;;;;;;5099146;28;20420;-60
2020/12/29 08:24:04;;;;;;;34.53;25.10;;;3.50;95.50;;;;;;5105926;28;20392;-60
2020/12/29 08:26:30;;;;;;;32.60;23.60;;;3.70;95.70;;;;;;5094900;28;20085;-59
2020/12/29 08:28:56;;;;;;;30.93;23.17;;;3.80;95.70;;;;;;5108693;27;21237;-60
2020/12/29 08:31:24;;;;;;;33.27;23.20;;;3.70;95.20;;;;;;5095284;28;20024;-60
2020/12/29 08:33:54;;;;;;;34.23;24.57;;;3.70;95.60;;;;;;5105152;27;20082;-61
2020/12/29 08:36:28;;;;;;;35.00;23.73;;;3.80;94.70;;;;;;5100568;27;20040;-60
2020/12/29 08:39:46;;;;;;;35.43;23.80;;;3.90;95.10;;;;;;5097573;28;20040;-61
2020/12/29 08:42:16;;;;;;;31.93;22.77;;;3.90;94.90;;;;;;4930895;28;20473;-61
2020/12/29 08:44:43;;;;;;;31.30;23.70;;;4.00;95.40;;;;;;5067438;28;20389;-61
2020/12/29 08:47:14;;;;;;;33.03;23.10;;;4.10;95.30;;;;;;5097771;27;20404;-62
2020/12/29 08:49:40;;;;;;;34.20;22.87;;;4.20;95.00;;;;;;5104048;28;20039;-61
2020/12/29 08:52:06;;;;;;;36.50;23.60;;;4.10;94.50;;;;;;5098106;27;20122;-62
2020/12/29 08:54:38;;;;;;;35.27;24.00;;;4.30;95.30;;;;;;5084979;28;20129;-62
2020/12/29 08:57:06;;;;;;;34.93;23.97;;;4.10;93.80;;;;;;5098057;28;20089;-62
2020/12/29 08:59:39;;;;;;;36.43;25.97;;;4.10;94.70;;;;;;5100937;27;20093;-60
2020/12/29 09:02:06;;;;;;;34.13;25.60;;;4.20;94.40;;;;;;5082688;28;20069;-60
2020/12/29 09:04:40;;;;;;;37.67;24.50;;;4.30;94.50;;;;;;5081742;28;20439;-58
2020/12/29 09:07:15;;;;;;;35.70;26.37;;;4.30;94.10;;;;;;5099878;28;20067;-60
2020/12/29 09:09:50;;;;;;;;;;;4.20;93.10;;;;;;5096435;28;20169;-61
2020/12/29 09:12:21;;;;;;;37.88;26.58;;;4.20;93.10;;;;;;5101431;28;20372;-61
2020/12/29 09:14:53;;;;;;;40.37;26.47;;;4.20;93.90;;;;;;5097454;28;20036;-61
2020/12/29 09:17:19;;;;;;;37.97;25.83;;;4.30;94.40;;;;;;5102203;28;20426;-61
2020/12/29 09:20:09;;;;;;;37.60;26.47;;;4.30;93.20;;;;;;5099639;28;20126;-61
2020/12/29 09:23:00;;;;;;;36.23;25.67;;;4.30;93.00;;;;;;5083672;28;20038;-61
2020/12/29 09:25:26;;;;;;;39.20;26.83;;;4.30;92.80;;;;;;5075626;28;20036;-61
2020/12/29 09:28:14;;;;;;;38.27;27.83;;;4.40;94.20;;;;;;5101311;28;20059;-61
2020/12/29 09:30:45;;;;;;;38.50;28.63;;;4.40;93.30;;;;;;5100758;28;20040;-60
2020/12/29 09:33:12;;;;;;;43.97;27.97;;;4.30;93.90;;;;;;5098412;28;20035;-61
2020/12/29 09:35:38;;;;;;;40.17;28.23;;;4.40;94.30;;;;;;5099783;28;20027;-59
2020/12/29 09:38:04;;;;;;;41.90;27.97;;;4.30;93.60;;;;;;5102883;28;20057;-61
2020/12/29 09:40:29;;;;;;;35.90;26.60;;;4.30;94.40;;;;;;5098733;28;20039;-61
2020/12/29 09:42:56;;;;;;;37.83;25.83;;;4.40;94.60;;;;;;5101565;28;20066;-61
2020/12/29 09:45:24;;;;;;;37.87;27.87;;;4.40;94.20;;;;;;5097054;27;20048;-61
2020/12/29 09:47:50;;;;;;;36.17;26.37;;;4.40;93.60;;;;;;5101561;28;20028;-61
2020/12/29 09:50:16;;;;;;;37.70;26.60;;;4.30;93.40;;;;;;5097668;28;20044;-62
2020/12/29 09:52:42;;;;;;;40.47;26.53;;;4.40;94.30;;;;;;5102675;28;20079;-61
2020/12/29 09:55:08;;;;;;;38.23;26.60;;;4.40;94.30;;;;;;5100780;28;20059;-60
2020/12/29 09:57:34;;;;;;;40.33;27.07;;;4.40;94.10;;;;;;5095261;28;20028;-61
2020/12/29 10:00:00;;;;;;;35.07;26.17;;;4.40;94.20;;;;;;5095655;27;20542;-60
2020/12/29 10:02:26;;;;;;;33.63;23.87;;;4.40;94.40;;;;;;5098822;28;20043;-60
2020/12/29 10:04:51;;;;;;;33.27;25.40;;;4.40;93.60;;;;;;5096619;27;20047;-60
2020/12/29 10:07:18;;;;;;;34.20;24.00;;;4.50;93.40;;;;;;5099885;28;20105;-60
2020/12/29 10:09:44;;;;;;;34.63;25.07;;;4.50;93.70;;;;;;5097261;28;20035;-61
2020/12/29 10:12:10;;;;;;;34.07;24.90;;;4.60;93.50;;;;;;5099974;27;20039;-61
2020/12/29 10:14:36;;;;;;;33.80;24.30;;;4.50;94.00;;;;;;5101281;28;20066;-61
2020/12/29 10:17:02;;;;;;;34.53;24.73;;;4.50;93.00;;;;;;5095257;27;20486;-61
2020/12/29 10:19:27;;;;;;;38.20;25.00;;;4.50;93.60;;;;;;5100839;28;20048;-61
2020/12/29 10:21:54;;;;;;;36.30;25.37;;;4.50;92.90;;;;;;5096559;28;20113;-61
2020/12/29 10:24:20;;;;;;;37.90;26.40;;;4.50;92.80;;;;;;5099999;28;20119;-61
2020/12/29 10:26:50;;;;;;;35.00;24.20;;;4.60;93.30;;;;;;5095470;28;20039;-61
2020/12/29 10:29:16;;;;;;;36.67;25.00;;;4.70;93.20;;;;;;5100249;28;20062;-61
2020/12/29 10:31:42;;;;;;;37.27;26.23;;;5.00;93.50;;;;;;5096470;28;20487;-61
2020/12/29 10:34:11;;;;;;;41.03;27.20;;;5.10;92.10;;;;;;5101307;28;20032;-61
2020/12/29 10:36:37;;;;;;;33.70;25.37;;;5.10;92.40;;;;;;5096126;28;20094;-61
2020/12/29 10:39:04;;;;;;;37.03;26.40;;;5.10;93.30;;;;;;5074581;28;20115;-61
2020/12/29 10:41:31;;;;;;;36.77;25.43;;;5.10;93.20;;;;;;5096315;28;20039;-61
2020/12/29 10:43:58;;;;;;;37.00;27.03;;;5.10;93.70;;;;;;5101229;28;20051;-61
2020/12/29 10:46:24;;;;;;;39.33;25.73;;;5.00;94.00;;;;;;5096408;28;20135;-62
2020/12/29 10:48:50;;;;;;;40.00;27.60;;;5.00;93.80;;;;;;5101449;28;20051;-61
2020/12/29 10:51:20;;;;;;;38.07;26.33;;;4.90;93.90;;;;;;5095725;28;20203;-61
2020/12/29 10:53:46;;;;;;;45.37;28.93;;;4.90;94.00;;;;;;5098395;28;20044;-61
2020/12/29 10:56:12;;;;;;;44.13;27.57;;;4.80;94.40;;;;;;5101136;28;20561;-61
2020/12/29 10:58:39;;;;;;;41.73;27.93;;;4.80;95.20;;;;;;5098165;28;20039;-61
2020/12/29 11:01:05;;;;;;;47.10;29.10;;;4.80;95.70;;;;;;5101334;28;20039;-61
2020/12/29 11:03:31;;;;;;;46.67;29.33;;;4.70;95.50;;;;;;5093787;27;20048;-61
2020/12/29 11:05:57;;;;;;;46.13;28.70;;;4.70;95.50;;;;;;5099807;28;20047;-61
2020/12/29 11:08:26;;;;;;;45.10;28.43;;;4.60;94.50;;;;;;5094018;28;20036;-61
2020/12/29 11:10:51;;;;;;;46.17;29.03;;;4.70;95.00;;;;;;5098616;27;20674;-61
2020/12/29 11:13:17;;;;;;;49.43;28.73;;;4.80;95.50;;;;;;5077757;28;20038;-60
2020/12/29 11:15:43;;;;;;;42.63;28.77;;;4.90;95.50;;;;;;5099172;27;20036;-60
2020/12/29 11:18:08;;;;;;;45.20;28.07;;;4.90;95.30;;;;;;5095803;27;20035;-60
2020/12/29 11:20:35;;;;;;;47.47;29.53;;;5.00;95.30;;;;;;5098841;28;20047;-60
2020/12/29 11:23:00;;;;;;;44.10;27.67;;;5.10;94.40;;;;;;5075068;28;20199;-60
2020/12/29 11:25:26;;;;;;;41.53;27.70;;;5.10;94.30;;;;;;5099566;28;20160;-61
2020/12/29 11:27:52;;;;;;;41.33;26.83;;;5.10;94.20;;;;;;5094416;28;20046;-62
2020/12/29 11:30:17;;;;;;;45.53;27.87;;;5.10;94.50;;;;;;5080458;28;20035;-61
2020/12/29 11:32:43;;;;;;;42.10;27.47;;;5.10;94.30;;;;;;5098957;28;20052;-61
2020/12/29 11:35:09;;;;;;;44.30;28.67;;;5.20;94.40;;;;;;5072382;28;20044;-61
2020/12/29 11:37:34;;;;;;;42.17;28.47;;;5.40;94.00;;;;;;5098633;28;20603;-62
2020/12/29 11:40:00;;;;;;;44.00;28.23;;;5.40;94.40;;;;;;5094482;28;20511;-61
2020/12/29 11:42:28;;;;;;;44.93;28.43;;;5.40;94.50;;;;;;5099713;28;20039;-61
2020/12/29 11:44:54;;;;;;;42.13;27.83;;;5.20;94.10;;;;;;5075006;28;20939;-61
2020/12/29 11:47:20;;;;;;;46.37;27.93;;;5.10;94.20;;;;;;5098943;28;20039;-61
2020/12/29 11:49:45;;;;;;;39.17;26.50;;;5.20;94.10;;;;;;5094982;28;20081;-61
2020/12/29 11:52:11;;;;;;;42.50;27.50;;;5.20;94.10;;;;;;5099055;28;20138;-61
2020/12/29 11:54:36;;;;;;;44.13;29.83;;;5.10;94.30;;;;;;5095708;28;20561;-61
2020/12/29 11:57:02;;;;;;;42.33;28.53;;;5.20;94.30;;;;;;5098197;28;20505;-61
2020/12/29 11:59:28;;;;;;;44.70;28.37;;;5.20;94.20;;;;;;5076879;28;20028;-61
2020/12/29 12:01:55;;;;;;;45.33;30.43;;;5.20;94.50;;;;;;5100028;28;20067;-62
2020/12/29 12:04:20;;;;;;;45.67;30.03;;;4.90;96.30;;;;;;5099337;28;20084;-61
2020/12/29 12:06:46;;;;;;;40.63;29.43;;;4.90;97.30;;;;;;5104031;28;20044;-61
2020/12/29 12:09:12;;;;;;;46.40;30.03;;;4.90;97.60;;;;;;5097790;28;20111;-61
2020/12/29 12:11:38;;;;;;;47.80;30.27;;;4.90;98.00;;;;;;5099672;27;20442;-62
2020/12/29 12:14:04;;;;;;;42.63;29.13;;;4.90;97.70;;;;;;5102050;27;20040;-62
2020/12/29 12:16:36;;;;;;;45.30;30.63;;;4.80;96.80;;;;;;5086848;28;20134;-62
2020/12/29 12:19:01;;;;;;;44.63;29.03;;;4.80;97.70;;;;;;5099837;28;20044;-62
2020/12/29 12:21:28;;;;;;;44.07;30.40;;;4.80;97.10;;;;;;5104228;27;20063;-62
2020/12/29 12:23:54;;;;;;;44.73;29.90;;;4.90;97.50;;;;;;5103993;27;20128;-61
2020/12/29 12:26:20;;;;;;;42.13;29.50;;;5.00;98.10;;;;;;5083812;28;20127;-62
2020/12/29 12:28:46;;;;;;;45.13;30.47;;;4.90;98.40;;;;;;5101760;28;20036;-62
2020/12/29 12:31:15;;;;;;;47.20;30.93;;;4.80;98.30;;;;;;5081161;28;20085;-60
2020/12/29 12:33:43;;;;;;;43.57;29.47;;;4.80;98.20;;;;;;5085722;27;20028;-61
2020/12/29 12:36:10;;;;;;;42.47;29.20;;;4.70;96.50;;;;;;5096863;27;20377;-63
2020/12/29 12:38:36;;;;;;;45.27;29.67;;;4.60;97.80;;;;;;5099932;27;20038;-63
2020/12/29 12:41:02;;;;;;;46.83;29.97;;;4.60;98.40;;;;;;5098836;28;20031;-62
2020/12/29 12:43:28;;;;;;;42.80;29.37;;;4.60;98.50;;;;;;5086047;28;20228;-62
2020/12/29 12:45:54;;;;;;;43.07;30.20;;;4.50;98.10;;;;;;5093888;28;20139;-63
2020/12/29 12:48:20;;;;;;;44.70;30.53;;;4.50;98.40;;;;;;5102776;28;20540;-62